createdAt,value
2022-09-26T00:00:13.391Z,99.90
2022-09-26T00:02:40.332Z,99.90
2022-09-26T00:05:11.151Z,99.90
2022-09-26T00:07:38.261Z,99.90
2022-09-26T00:10:05.491Z,99.90
2022-09-26T00:12:32.419Z,99.90
2022-09-26T00:14:59.293Z,99.90
2022-09-26T00:17:26.133Z,99.90
2022-09-26T00:19:53.143Z,99.90
2022-09-26T00:22:20.202Z,99.90
2022-09-26T00:24:47.140Z,99.90
2022-09-26T00:27:14.040Z,99.90
2022-09-26T00:29:41.049Z,99.90
2022-09-26T00:32:08.137Z,99.90
2022-09-26T00:34:35.007Z,99.90
2022-09-26T00:37:01.952Z,99.90
2022-09-26T00:39:28.892Z,99.90
2022-09-26T00:41:55.987Z,99.90
2022-09-26T00:44:49.359Z,99.90
2022-09-26T00:47:19.335Z,99.90
2022-09-26T00:49:47.030Z,99.90
2022-09-26T00:52:18.738Z,99.90
2022-09-26T00:54:47.557Z,99.90
2022-09-26T00:57:17.984Z,99.90
2022-09-26T00:59:48.575Z,99.90
2022-09-26T01:02:16.504Z,99.90
2022-09-26T01:04:45.060Z,99.90
2022-09-26T01:07:18.104Z,99.90
2022-09-26T01:09:45.177Z,99.90
2022-09-26T01:12:12.679Z,99.90
2022-09-26T01:14:40.553Z,99.90
2022-09-26T01:17:08.524Z,99.90
2022-09-26T01:19:39.126Z,99.90
2022-09-26T01:22:29.818Z,99.90
2022-09-26T01:25:09.090Z,99.90
2022-09-26T01:27:36.027Z,99.90
2022-09-26T01:30:05.440Z,99.90
2022-09-26T01:32:53.553Z,99.90
2022-09-26T01:35:26.421Z,99.90
2022-09-26T01:37:53.326Z,99.90
2022-09-26T01:40:21.391Z,99.90
2022-09-26T01:42:55.213Z,99.90
2022-09-26T01:45:23.919Z,99.90
2022-09-26T01:47:50.791Z,99.90
2022-09-26T01:50:22.897Z,99.90
2022-09-26T01:53:00.458Z,99.90
2022-09-26T01:55:41.572Z,99.90
2022-09-26T01:58:14.000Z,99.90
2022-09-26T02:00:42.891Z,99.90
2022-09-26T02:03:13.659Z,99.90
2022-09-26T02:05:44.834Z,99.90
2022-09-26T02:08:16.808Z,99.90
2022-09-26T02:10:54.429Z,99.90
2022-09-26T02:13:25.645Z,99.90
2022-09-26T02:15:56.202Z,99.90
2022-09-26T02:18:26.207Z,99.90
2022-09-26T02:20:56.426Z,99.90
2022-09-26T02:23:23.837Z,99.90
2022-09-26T02:25:54.196Z,99.90
2022-09-26T02:28:22.324Z,99.90
2022-09-26T02:30:50.082Z,99.90
2022-09-26T02:33:17.135Z,99.90
2022-09-26T02:35:56.482Z,99.90
2022-09-26T02:38:28.701Z,99.90
2022-09-26T02:41:13.305Z,99.90
2022-09-26T02:43:43.623Z,99.90
2022-09-26T02:46:11.236Z,99.90
2022-09-26T02:48:41.326Z,99.90
2022-09-26T02:51:16.277Z,99.90
2022-09-26T02:53:43.590Z,99.90
2022-09-26T02:56:26.911Z,99.90
2022-09-26T02:59:00.068Z,99.90
2022-09-26T03:01:33.441Z,99.90
2022-09-26T03:04:08.533Z,99.90
2022-09-26T03:06:38.009Z,99.90
2022-09-26T03:09:05.955Z,99.90
2022-09-26T03:11:33.490Z,99.90
2022-09-26T03:14:02.089Z,99.90
2022-09-26T03:16:34.235Z,99.90
2022-09-26T03:19:01.436Z,99.90
2022-09-26T03:21:28.768Z,99.90
2022-09-26T03:23:58.171Z,99.90
2022-09-26T03:26:27.058Z,99.90
2022-09-26T03:28:58.342Z,99.90
2022-09-26T03:31:28.557Z,99.90
2022-09-26T03:34:04.754Z,99.90
2022-09-26T03:36:32.378Z,99.90
2022-09-26T03:39:01.198Z,99.90
2022-09-26T03:41:51.318Z,99.90
2022-09-26T03:44:26.416Z,99.90
2022-09-26T03:47:11.992Z,99.90
2022-09-26T03:49:41.458Z,99.90
2022-09-26T03:52:12.599Z,99.90
2022-09-26T03:54:40.262Z,99.90
2022-09-26T03:57:07.509Z,99.90
2022-09-26T03:59:39.573Z,99.90
2022-09-26T04:02:07.571Z,99.90
2022-09-26T04:04:39.399Z,99.90
2022-09-26T04:07:06.564Z,99.90
2022-09-26T04:09:33.539Z,99.90
2022-09-26T04:12:01.073Z,99.90
2022-09-26T04:14:28.100Z,99.90
2022-09-26T04:16:58.780Z,99.90
2022-09-26T04:19:47.002Z,99.90
2022-09-26T04:22:14.121Z,99.90
2022-09-26T04:24:41.779Z,99.90
2022-09-26T04:27:08.861Z,99.90
2022-09-26T04:29:36.594Z,99.90
2022-09-26T04:32:32.527Z,99.90
2022-09-26T04:35:17.832Z,99.90
2022-09-26T04:37:46.306Z,99.90
2022-09-26T04:40:14.188Z,99.90
2022-09-26T04:42:51.549Z,99.90
2022-09-26T04:45:18.604Z,99.90
2022-09-26T04:47:46.093Z,99.90
2022-09-26T04:50:36.212Z,99.90
2022-09-26T04:53:06.951Z,99.90
2022-09-26T04:55:41.585Z,99.90
2022-09-26T04:58:09.683Z,99.90
2022-09-26T05:00:36.939Z,99.90
2022-09-26T05:03:05.419Z,99.90
2022-09-26T05:05:33.226Z,99.90
2022-09-26T05:08:00.153Z,99.90
2022-09-26T05:10:27.316Z,99.90
2022-09-26T05:12:59.985Z,99.90
2022-09-26T05:15:26.968Z,99.90
2022-09-26T05:17:57.928Z,99.90
2022-09-26T05:20:29.191Z,99.90
2022-09-26T05:22:59.295Z,99.90
2022-09-26T05:25:45.933Z,99.90
2022-09-26T05:28:12.852Z,99.90
2022-09-26T05:30:41.140Z,99.90
2022-09-26T05:33:09.326Z,99.90
2022-09-26T05:35:36.378Z,99.90
2022-09-26T05:38:04.374Z,99.90
2022-09-26T05:40:52.339Z,99.90
2022-09-26T05:43:19.348Z,99.90
2022-09-26T05:45:49.399Z,99.90
2022-09-26T05:48:19.926Z,99.90
2022-09-26T05:50:46.954Z,99.90
2022-09-26T05:53:15.170Z,99.90
2022-09-26T05:55:42.121Z,99.90
2022-09-26T05:58:23.467Z,99.90
2022-09-26T06:01:13.623Z,99.90
2022-09-26T06:03:47.297Z,99.90
2022-09-26T06:06:23.301Z,99.90
2022-09-26T06:08:55.640Z,99.90
2022-09-26T06:11:41.317Z,99.90
2022-09-26T06:14:08.350Z,99.90
2022-09-26T06:16:36.027Z,99.90
2022-09-26T06:19:03.226Z,99.90
2022-09-26T06:21:30.365Z,99.90
2022-09-26T06:24:04.086Z,99.90
2022-09-26T06:26:32.107Z,99.90
2022-09-26T06:29:00.542Z,99.90
2022-09-26T06:31:29.475Z,99.90
2022-09-26T06:34:13.122Z,99.90
2022-09-26T06:36:49.227Z,99.90
2022-09-26T06:39:16.402Z,99.90
2022-09-26T06:41:45.488Z,99.90
2022-09-26T06:44:28.432Z,94.60
2022-09-26T06:47:30.756Z,90.70
2022-09-26T06:50:23.602Z,90.70
2022-09-26T06:52:54.189Z,91.80
2022-09-26T06:55:23.899Z,93.00
2022-09-26T06:57:51.538Z,94.40
2022-09-26T07:00:18.984Z,95.80
2022-09-26T07:03:05.805Z,97.30
2022-09-26T07:05:45.311Z,98.90
2022-09-26T07:08:12.817Z,99.90
2022-09-26T07:10:39.657Z,99.90
2022-09-26T07:13:11.742Z,99.90
2022-09-26T07:15:40.171Z,99.90
2022-09-26T07:18:23.481Z,99.90
2022-09-26T07:21:16.922Z,99.90
2022-09-26T07:23:48.744Z,99.90
2022-09-26T07:26:18.677Z,99.90
2022-09-26T07:28:47.729Z,99.90
2022-09-26T07:31:18.252Z,99.90
2022-09-26T07:34:08.906Z,99.90
2022-09-26T07:36:39.812Z,98.00
2022-09-26T07:39:08.137Z,98.20
2022-09-26T07:41:35.158Z,98.00
2022-09-26T07:47:08.986Z,90.60
2022-09-26T07:50:14.491Z,84.40
2022-09-26T07:53:05.307Z,65.00
2022-09-26T07:55:32.252Z,72.10
2022-09-26T07:58:26.167Z,75.10
2022-09-26T08:01:12.867Z,76.20
2022-09-26T08:03:58.693Z,75.30
2022-09-26T08:06:35.241Z,69.60
2022-09-26T08:09:02.595Z,78.60
2022-09-26T08:12:04.900Z,81.40
2022-09-26T08:15:06.150Z,84.30
2022-09-26T08:17:45.161Z,85.90
2022-09-26T08:20:12.221Z,83.20
2022-09-26T08:22:39.307Z,85.80
2022-09-26T08:25:07.354Z,85.60
2022-09-26T08:27:50.650Z,87.90
2022-09-26T08:30:19.329Z,89.00
2022-09-26T08:32:53.707Z,84.90
2022-09-26T08:35:20.956Z,90.30
2022-09-26T08:38:17.361Z,90.20
2022-09-26T08:40:54.684Z,89.00
2022-09-26T08:43:40.173Z,91.20
2022-09-26T08:46:45.927Z,90.10
2022-09-26T08:49:32.862Z,92.30
2022-09-26T08:52:01.643Z,82.90
2022-09-26T08:54:38.000Z,87.60
2022-09-26T08:57:24.248Z,81.70
2022-09-26T08:59:52.115Z,80.40
2022-09-26T09:02:36.419Z,78.60
2022-09-26T09:05:17.304Z,92.50
2022-09-26T09:07:48.195Z,86.20
2022-09-26T09:10:16.795Z,92.10
2022-09-26T09:13:09.886Z,91.70
2022-09-26T09:15:49.353Z,93.20
2022-09-26T09:18:34.797Z,92.90
2022-09-26T09:21:22.860Z,91.90
2022-09-26T09:24:04.393Z,92.60
2022-09-26T09:29:49.442Z,93.10
2022-09-26T09:32:42.379Z,93.60
2022-09-26T09:35:19.303Z,93.60
2022-09-26T09:38:15.392Z,94.10
2022-09-26T09:41:13.311Z,94.70
2022-09-26T09:43:42.375Z,95.80
2022-09-26T09:46:15.505Z,94.60
2022-09-26T09:48:42.948Z,96.40
2022-09-26T09:51:18.339Z,95.70
2022-09-26T09:53:45.366Z,96.30
2022-09-26T09:56:12.880Z,94.50
2022-09-26T09:58:39.950Z,94.10
2022-09-26T10:01:12.421Z,92.70
2022-09-26T10:04:06.207Z,91.70
2022-09-26T10:06:44.515Z,93.00
2022-09-26T10:09:39.376Z,93.80
2022-09-26T10:12:28.987Z,92.80
2022-09-26T10:15:31.383Z,93.60
2022-09-26T10:18:26.755Z,92.30
2022-09-26T10:21:19.143Z,94.00
2022-09-26T10:23:47.521Z,94.10
2022-09-26T10:26:39.478Z,90.30
2022-09-26T10:29:08.956Z,90.30
2022-09-26T10:31:42.374Z,90.80
2022-09-26T10:34:28.103Z,90.10
2022-09-26T10:36:55.859Z,92.50
2022-09-26T10:39:43.680Z,92.20
2022-09-26T10:42:15.377Z,93.60
2022-09-26T10:44:43.322Z,93.20
2022-09-26T10:47:23.862Z,93.90
2022-09-26T10:50:16.653Z,93.80
2022-09-26T10:53:10.165Z,88.70
2022-09-26T10:55:41.932Z,92.40
2022-09-26T10:58:15.332Z,95.10
2022-09-26T11:00:44.635Z,96.40
2022-09-26T11:03:20.312Z,96.20
2022-09-26T11:06:05.959Z,96.20
2022-09-26T11:08:37.637Z,95.90
2022-09-26T11:11:40.173Z,95.50
2022-09-26T11:14:08.821Z,95.30
2022-09-26T11:16:45.820Z,93.10
2022-09-26T11:19:28.327Z,93.40
2022-09-26T11:21:55.254Z,90.20
2022-09-26T11:24:25.150Z,92.90
2022-09-26T11:27:12.642Z,92.20
2022-09-26T11:29:39.604Z,92.50
2022-09-26T11:32:23.942Z,84.60
2022-09-26T11:35:02.478Z,91.00
2022-09-26T11:37:43.391Z,90.40
2022-09-26T11:40:17.747Z,86.40
2022-09-26T11:42:55.006Z,91.90
2022-09-26T11:45:25.049Z,90.20
2022-09-26T11:48:30.550Z,89.60
2022-09-26T11:51:20.788Z,81.90
2022-09-26T11:53:54.781Z,89.80
2022-09-26T11:56:38.078Z,83.10
2022-09-26T11:59:05.531Z,88.40
2022-09-26T12:01:38.926Z,91.50
2022-09-26T12:04:16.011Z,90.40
2022-09-26T12:06:49.862Z,90.40
2022-09-26T12:09:22.996Z,90.30
2022-09-26T12:12:00.186Z,91.40
2022-09-26T12:14:34.862Z,87.10
2022-09-26T12:17:19.725Z,90.70
2022-09-26T12:19:46.653Z,91.00
2022-09-26T12:22:31.782Z,90.80
2022-09-26T12:25:20.349Z,91.70
2022-09-26T12:27:50.588Z,95.00
2022-09-26T12:30:20.528Z,96.00
2022-09-26T12:33:10.473Z,96.50
2022-09-26T12:35:46.980Z,96.60
2022-09-26T12:38:24.650Z,95.70
2022-09-26T12:41:00.720Z,95.20
2022-09-26T12:43:47.315Z,90.60
2022-09-26T12:46:26.587Z,93.50
2022-09-26T12:49:06.843Z,92.50
2022-09-26T12:51:58.777Z,90.30
2022-09-26T12:54:39.205Z,82.70
2022-09-26T12:57:06.254Z,91.80
2022-09-26T12:59:52.000Z,87.00
2022-09-26T13:02:33.718Z,88.70
2022-09-26T13:05:18.936Z,91.80
2022-09-26T13:08:05.927Z,90.90
2022-09-26T13:10:32.789Z,90.70
2022-09-26T13:12:59.662Z,93.10
2022-09-26T13:15:31.403Z,87.40
2022-09-26T13:18:02.311Z,92.60
2022-09-26T13:20:33.141Z,92.70
2022-09-26T13:23:12.048Z,90.10
2022-09-26T13:25:47.183Z,92.60
2022-09-26T13:28:21.803Z,90.70
2022-09-26T13:30:53.647Z,92.00
2022-09-26T13:33:26.728Z,90.50
2022-09-26T13:35:56.377Z,92.80
2022-09-26T13:38:23.246Z,92.40
2022-09-26T13:40:51.682Z,88.40
2022-09-26T13:43:34.308Z,90.90
2022-09-26T13:46:07.843Z,90.20
2022-09-26T13:49:00.885Z,91.00
2022-09-26T13:51:40.160Z,92.90
2022-09-26T13:54:20.424Z,86.00
2022-09-26T13:56:49.371Z,93.70
2022-09-26T13:59:18.037Z,92.10
2022-09-26T14:02:03.685Z,87.30
2022-09-26T14:04:34.362Z,91.80
2022-09-26T14:07:29.292Z,93.20
2022-09-26T14:10:03.488Z,94.20
2022-09-26T14:12:49.214Z,87.10
2022-09-26T14:15:18.697Z,92.90
2022-09-26T14:17:45.609Z,84.70
2022-09-26T14:20:18.441Z,93.20
2022-09-26T14:22:53.134Z,87.70
2022-09-26T14:25:41.601Z,78.40
2022-09-26T14:28:10.001Z,94.90
2022-09-26T14:30:38.991Z,80.70
2022-09-26T14:33:10.325Z,88.50
2022-09-26T14:35:40.898Z,83.00
2022-09-26T14:38:09.582Z,92.80
2022-09-26T14:40:39.952Z,79.80
2022-09-26T14:43:38.071Z,79.50
2022-09-26T14:46:08.080Z,91.80
2022-09-26T14:48:36.917Z,93.30
2022-09-26T14:51:12.605Z,74.70
2022-09-26T14:53:49.215Z,79.70
2022-09-26T14:56:18.373Z,80.60
2022-09-26T14:58:47.145Z,77.00
2022-09-26T15:01:23.928Z,88.20
2022-09-26T15:03:55.742Z,92.00
2022-09-26T15:06:24.603Z,91.10
2022-09-26T15:08:52.700Z,79.90
2022-09-26T15:11:25.481Z,88.40
2022-09-26T15:13:52.667Z,85.80
2022-09-26T15:16:32.908Z,75.10
2022-09-26T15:19:20.172Z,89.50
2022-09-26T15:22:00.741Z,86.10
2022-09-26T15:24:35.567Z,90.70
2022-09-26T15:27:29.730Z,82.60
2022-09-26T15:30:04.438Z,91.80
2022-09-26T15:32:32.344Z,76.50
2022-09-26T15:35:03.253Z,90.00
2022-09-26T15:37:32.251Z,92.20
2022-09-26T15:40:13.244Z,92.90
2022-09-26T15:42:58.593Z,92.70
2022-09-26T15:45:35.742Z,83.50
2022-09-26T15:48:22.582Z,91.10
2022-09-26T15:50:51.885Z,95.50
2022-09-26T15:53:20.501Z,95.90
2022-09-26T15:55:47.456Z,97.70
2022-09-26T15:58:16.382Z,91.50
2022-09-26T16:00:45.277Z,97.70
2022-09-26T16:03:18.085Z,94.60
2022-09-26T16:05:47.517Z,96.80
2022-09-26T16:08:19.914Z,97.20
2022-09-26T16:10:52.253Z,93.30
2022-09-26T16:13:25.577Z,81.80
2022-09-26T16:16:03.545Z,95.00
2022-09-26T16:18:37.234Z,95.70
2022-09-26T16:21:18.317Z,97.00
2022-09-26T16:23:48.625Z,94.60
2022-09-26T16:26:25.242Z,92.90
2022-09-26T16:28:53.845Z,96.10
2022-09-26T16:31:24.534Z,96.40
2022-09-26T16:33:53.026Z,98.80
2022-09-26T16:36:21.869Z,97.60
2022-09-26T16:38:53.518Z,91.70
2022-09-26T16:42:00.534Z,97.30
2022-09-26T16:44:39.756Z,97.00
2022-09-26T16:47:29.559Z,93.20
2022-09-26T16:49:56.673Z,99.90
2022-09-26T16:52:27.103Z,99.90
2022-09-26T16:54:55.086Z,99.60
2022-09-26T16:57:27.323Z,99.90
2022-09-26T17:00:14.289Z,99.90
2022-09-26T17:02:41.737Z,99.90
2022-09-26T17:05:13.794Z,99.90
2022-09-26T17:07:40.765Z,99.90
2022-09-26T17:10:07.801Z,99.90
2022-09-26T17:12:35.364Z,99.90
2022-09-26T17:15:02.551Z,99.90
2022-09-26T17:17:30.615Z,99.90
2022-09-26T17:19:59.524Z,99.90
2022-09-26T17:22:27.148Z,99.90
2022-09-26T17:24:54.498Z,99.90
2022-09-26T17:27:27.277Z,99.90
2022-09-26T17:30:01.449Z,99.90
2022-09-26T17:32:33.313Z,99.90
2022-09-26T17:35:01.994Z,99.90
2022-09-26T17:37:29.114Z,99.90
2022-09-26T17:39:56.096Z,96.50
2022-09-26T17:42:23.828Z,99.90
2022-09-26T17:44:51.279Z,99.90
2022-09-26T17:47:20.789Z,99.90
2022-09-26T17:49:57.440Z,99.90
2022-09-26T17:52:32.986Z,99.90
2022-09-26T17:55:05.339Z,99.90
2022-09-26T17:57:38.178Z,99.90
2022-09-26T18:00:11.215Z,99.90
2022-09-26T18:02:42.709Z,99.90
2022-09-26T18:05:26.654Z,99.90
2022-09-26T18:07:55.548Z,99.90
2022-09-26T18:10:26.441Z,99.90
2022-09-26T18:12:57.504Z,99.90
2022-09-26T18:15:24.840Z,99.90
2022-09-26T18:17:52.013Z,99.90
2022-09-26T18:20:20.370Z,99.90
2022-09-26T18:22:48.938Z,99.90
2022-09-26T18:25:21.770Z,99.90
2022-09-26T18:27:52.967Z,99.90
2022-09-26T18:30:21.081Z,99.90
2022-09-26T18:32:51.506Z,99.90
2022-09-26T18:35:19.889Z,99.90
2022-09-26T18:37:46.805Z,99.90
2022-09-26T18:40:16.499Z,99.90
2022-09-26T18:42:47.385Z,99.90
2022-09-26T18:45:15.394Z,99.90
2022-09-26T18:47:45.805Z,99.90
2022-09-26T18:50:24.323Z,99.90
2022-09-26T18:52:52.204Z,99.90
2022-09-26T18:55:41.763Z,99.90
2022-09-26T18:58:23.988Z,99.90
2022-09-26T19:00:59.118Z,99.90
2022-09-26T19:03:45.686Z,99.90
2022-09-26T19:06:16.343Z,99.90
2022-09-26T19:08:45.099Z,99.90
2022-09-26T19:11:13.847Z,99.90
2022-09-26T19:13:41.125Z,99.90
2022-09-26T19:16:08.081Z,99.90
2022-09-26T19:18:35.478Z,99.90
2022-09-26T19:21:08.345Z,99.90
2022-09-26T19:23:36.618Z,99.90
2022-09-26T19:26:05.588Z,99.90
2022-09-26T19:28:34.446Z,99.90
2022-09-26T19:31:01.889Z,99.90
2022-09-26T19:33:28.894Z,99.90
2022-09-26T19:35:56.139Z,99.90
2022-09-26T19:38:24.646Z,99.90
2022-09-26T19:40:53.401Z,99.90
2022-09-26T19:43:20.915Z,99.90
2022-09-26T19:45:51.634Z,99.90
2022-09-26T19:48:19.938Z,99.90
2022-09-26T19:50:47.321Z,99.90
2022-09-26T19:53:18.600Z,99.90
2022-09-26T19:55:50.434Z,99.90
2022-09-26T19:58:18.951Z,99.90
2022-09-26T20:00:48.824Z,99.90
2022-09-26T20:03:16.109Z,99.90
2022-09-26T20:05:43.012Z,99.90
2022-09-26T20:08:15.058Z,99.90
2022-09-26T20:10:42.072Z,99.90
2022-09-26T20:13:08.959Z,99.90
2022-09-26T20:15:35.967Z,99.90
2022-09-26T20:18:03.232Z,99.90
2022-09-26T20:20:32.156Z,99.90
2022-09-26T20:22:59.206Z,99.90
2022-09-26T20:25:29.944Z,99.90
2022-09-26T20:27:57.371Z,99.90
2022-09-26T20:30:43.755Z,99.90
2022-09-26T20:33:10.841Z,99.90
2022-09-26T20:35:40.031Z,99.90
2022-09-26T20:38:08.167Z,99.90
2022-09-26T20:40:35.285Z,99.90
2022-09-26T20:43:06.162Z,99.90
2022-09-26T20:45:38.290Z,99.90
2022-09-26T20:48:07.334Z,99.90
2022-09-26T20:50:37.466Z,99.90
2022-09-26T20:53:10.668Z,99.90
2022-09-26T20:55:41.832Z,99.90
2022-09-26T20:58:10.806Z,99.90
2022-09-26T21:00:42.079Z,99.90
2022-09-26T21:03:13.039Z,99.90
2022-09-26T21:06:19.794Z,99.90
2022-09-26T21:08:47.981Z,99.90
2022-09-26T21:11:26.770Z,99.90
2022-09-26T21:13:56.860Z,99.90
2022-09-26T21:16:26.845Z,99.90
2022-09-26T21:18:54.781Z,99.90
2022-09-26T21:21:26.640Z,99.90
2022-09-26T21:24:21.551Z,99.90
2022-09-26T21:26:53.795Z,99.90
2022-09-26T21:29:24.379Z,99.90
2022-09-26T21:31:58.799Z,99.90
2022-09-26T21:34:27.593Z,99.90
2022-09-26T21:37:06.780Z,99.90
2022-09-26T21:39:39.014Z,99.90
2022-09-26T21:42:07.536Z,99.90
2022-09-26T21:44:40.158Z,99.90
2022-09-26T21:47:09.975Z,99.90
2022-09-26T21:49:37.890Z,99.90
2022-09-26T21:52:08.319Z,99.90
2022-09-26T21:54:41.351Z,99.90
2022-09-26T21:57:23.065Z,99.90
2022-09-26T21:59:53.483Z,99.90
2022-09-26T22:02:23.672Z,99.90
2022-09-26T22:04:52.670Z,99.90
2022-09-26T22:07:20.055Z,99.90
2022-09-26T22:09:56.504Z,99.90
2022-09-26T22:12:32.180Z,99.90
2022-09-26T22:15:02.299Z,99.90
2022-09-26T22:17:36.185Z,99.90
2022-09-26T22:20:14.217Z,99.90
2022-09-26T22:22:46.743Z,99.90
2022-09-26T22:25:13.939Z,99.90
2022-09-26T22:27:50.921Z,99.90
2022-09-26T22:30:18.980Z,99.90
2022-09-26T22:32:48.663Z,99.90
2022-09-26T22:35:17.885Z,99.90
2022-09-26T22:37:47.748Z,99.90
2022-09-26T22:40:17.653Z,99.90
2022-09-26T22:42:51.523Z,99.90
2022-09-26T22:45:20.105Z,99.90
2022-09-26T22:47:52.466Z,99.90
2022-09-26T22:50:19.638Z,99.90
2022-09-26T22:52:47.227Z,99.90
2022-09-26T22:55:19.841Z,99.90
2022-09-26T22:57:55.956Z,99.90
2022-09-26T23:00:29.774Z,99.90
2022-09-26T23:02:59.590Z,99.90
2022-09-26T23:05:29.667Z,99.90
2022-09-26T23:07:57.065Z,99.90
2022-09-26T23:10:27.343Z,99.90
2022-09-26T23:13:06.996Z,99.90
2022-09-26T23:15:45.864Z,99.90
2022-09-26T23:18:16.296Z,99.90
2022-09-26T23:20:49.790Z,99.90
2022-09-26T23:23:30.257Z,99.90
2022-09-26T23:26:03.049Z,99.90
2022-09-26T23:28:32.569Z,99.90
2022-09-26T23:31:09.180Z,99.90
2022-09-26T23:33:43.645Z,99.90
2022-09-26T23:36:16.808Z,99.90
2022-09-26T23:38:48.658Z,99.90
2022-09-26T23:41:18.931Z,99.90
2022-09-26T23:43:46.735Z,99.90
2022-09-26T23:46:21.221Z,99.90
2022-09-26T23:48:48.524Z,99.90
2022-09-26T23:51:20.019Z,99.90
2022-09-26T23:53:50.392Z,99.90
2022-09-26T23:56:17.784Z,99.90
2022-09-26T23:58:50.428Z,99.90
